Time;durP1;ratioP1;P1;durP2;ratioP2;P2;SDS_P1;SDS_P2;PMS_P1;PMS_P2;Temp;Humidity;BMP_temperature;BMP_pressure;BME280_temperature;BME280_humidity;BME280_pressure;Samples;Min_cycle;Max_cycle;Signal;HPM_P1;HPM_P2
2022/08/30 08:04:11;;;;;;;11.93;4.50;;;;;;;24.50;50.23;100591.90;1730527;80;21023;-53
2022/08/30 08:06:38;;;;;;;6.83;4.65;;;;;;;24.60;50.28;100584.25;1730476;80;21105;-53
2022/08/30 08:09:06;;;;;;;5.55;4.05;;;;;;;24.70;49.38;100585.16;1719027;80;21239;-53
2022/08/30 08:11:34;;;;;;;8.55;4.40;;;;;;;24.75;48.62;100589.91;1709043;80;21070;-53
2022/08/30 08:14:02;;;;;;;6.40;3.37;;;;;;;24.81;47.66;100579.13;1704450;80;21175;-53
2022/08/30 08:16:31;;;;;;;7.20;4.03;;;;;;;24.89;47.31;100574.55;1711212;80;21058;-53
2022/08/30 08:18:58;;;;;;;5.95;3.92;;;;;;;25.01;47.90;100576.34;1719008;80;21153;-53
2022/08/30 08:21:25;;;;;;;8.83;4.70;;;;;;;25.10;47.18;100572.06;1729462;80;21091;-53
2022/08/30 08:23:52;;;;;;;6.40;3.67;;;;;;;25.17;47.49;100566.14;1707459;82;20996;-53
2022/08/30 08:26:19;;;;;;;5.33;3.42;;;;;;;25.25;46.98;100571.28;1715852;80;21899;-54
2022/08/30 08:28:45;;;;;;;7.62;3.90;;;;;;;25.35;46.21;100570.83;1718365;81;21157;-54
2022/08/30 08:31:21;;;;;;;6.83;4.10;;;;;;;25.40;46.07;100569.66;1729292;80;21039;-54
2022/08/30 08:33:48;;;;;;;6.55;3.80;;;;;;;25.49;45.62;100571.06;1725699;80;21025;-54
2022/08/30 08:36:15;;;;;;;10.28;3.92;;;;;;;25.52;44.83;100574.67;1729588;80;21708;-54
2022/08/30 08:38:41;;;;;;;7.08;3.12;;;;;;;25.56;44.66;100568.33;1739663;80;21232;-54
2022/08/30 08:41:14;;;;;;;6.40;3.92;;;;;;;25.61;44.96;100571.19;1729048;80;21110;-54
2022/08/30 08:43:41;;;;;;;6.70;3.60;;;;;;;25.66;42.79;100571.89;1734923;80;21032;-54
2022/08/30 08:46:31;;;;;;;6.10;4.05;;;;;;;25.63;43.14;100571.80;1726610;80;21671;-55
2022/08/30 08:49:04;;;;;;;7.75;4.00;;;;;;;25.67;43.39;100570.33;1711377;81;21587;-55
2022/08/30 08:54:42;;;;;;;8.28;3.77;;;;;;;25.87;43.06;100570.69;1761610;80;21054;-54
2022/08/30 08:57:09;;;;;;;5.85;3.15;;;;;;;25.92;41.90;100564.96;1728594;80;21006;-53
2022/08/30 08:59:37;;;;;;;6.22;3.40;;;;;;;25.92;42.31;100566.30;1708419;81;21040;-53
2022/08/30 09:02:15;;;;;;;6.35;3.90;;;;;;;25.96;42.29;100561.33;1694220;82;21045;-53
2022/08/30 09:04:41;;;;;;;8.00;3.83;;;;;;;26.03;42.55;100558.58;1720279;81;21168;-53
2022/08/30 09:07:19;;;;;;;7.53;3.67;;;;;;;26.08;41.49;100566.30;1706543;81;21180;-55
2022/08/30 09:09:47;;;;;;;7.50;3.37;;;;;;;26.11;38.42;100567.20;1720897;81;21547;-54
2022/08/30 09:12:13;;;;;;;7.05;3.62;;;;;;;26.10;40.43;100568.77;1718358;81;21144;-55
2022/08/30 09:14:47;;;;;;;7.15;4.30;;;;;;;26.08;40.46;100573.03;1693799;80;21101;-55
2022/08/30 09:17:15;;;;;;;8.53;3.75;;;;;;;26.06;40.84;100577.83;1703135;81;22965;-54
2022/08/30 09:19:57;;;;;;;5.42;3.00;;;;;;;26.04;38.31;100563.75;1685983;79;21182;-55
2022/08/30 09:22:36;;;;;;;6.05;3.52;;;;;;;26.06;38.42;100581.06;1727107;80;21111;-55
2022/08/30 09:25:14;;;;;;;5.90;3.10;;;;;;;26.07;38.51;100568.67;1726146;81;21101;-55
2022/08/30 09:27:44;;;;;;;5.22;2.65;;;;;;;26.10;37.05;100564.20;1739735;80;21089;-53
2022/08/30 09:30:24;;;;;;;7.30;4.40;;;;;;;26.16;37.10;100580.53;1729723;80;22251;-53
2022/08/30 09:33:00;;;;;;;6.35;3.08;;;;;;;26.15;38.12;100571.63;1740757;80;21035;-54
2022/08/30 09:35:37;;;;;;;5.20;3.25;;;;;;;26.19;38.08;100570.66;1716337;81;21200;-54
2022/08/30 09:38:09;;;;;;;6.17;2.92;;;;;;;26.23;38.18;100582.67;1673321;83;21146;-54
2022/08/30 09:40:42;;;;;;;7.33;3.45;;;;;;;26.27;38.45;100569.84;1683424;82;21556;-54
2022/08/30 09:43:19;;;;;;;8.90;3.70;;;;;;;26.31;38.88;100573.77;1666904;83;21255;-55
2022/08/30 09:46:00;;;;;;;7.53;4.05;;;;;;;26.39;38.39;100568.59;1721776;80;21058;-54
2022/08/30 09:48:36;;;;;;;6.33;3.70;;;;;;;26.49;39.23;100567.58;1673269;84;21197;-54
2022/08/30 09:51:14;;;;;;;6.58;3.15;;;;;;;26.58;37.28;100560.00;1713304;82;21098;-54
2022/08/30 09:54:06;;;;;;;6.03;2.92;;;;;;;26.63;37.08;100570.98;1716691;80;21085;-55
2022/08/30 09:56:46;;;;;;;6.67;2.90;;;;;;;26.68;36.03;100563.56;1723336;80;21169;-54
2022/08/30 09:59:49;;;;;;;6.67;3.08;;;;;;;26.74;36.26;100557.78;1722262;80;21037;-54
2022/08/30 10:02:30;;;;;;;7.65;3.02;;;;;;;26.79;36.28;100564.14;1689610;82;21170;-54
2022/08/30 10:05:13;;;;;;;6.47;3.08;;;;;;;26.81;36.71;100580.11;1702825;80;21184;-54
2022/08/30 10:08:01;;;;;;;6.05;3.17;;;;;;;26.79;36.98;100559.27;1709558;81;21029;-55
2022/08/30 10:11:01;;;;;;;7.10;2.80;;;;;;;26.76;36.45;100557.84;1686000;82;21148;-55
2022/08/30 10:13:46;;;;;;;7.95;3.42;;;;;;;26.75;36.72;100572.91;1689555;82;21600;-55
2022/08/30 10:16:27;;;;;;;5.65;3.25;;;;;;;26.67;36.84;100568.12;1684873;82;21054;-56
2022/08/30 10:19:41;;;;;;;6.70;3.50;;;;;;;26.63;37.46;100567.43;1674835;82;21081;-55
2022/08/30 10:22:13;;;;;;;7.08;3.30;;;;;;;26.62;37.92;100565.77;1708821;80;21118;-53
2022/08/30 10:24:50;;;;;;;5.80;3.02;;;;;;;26.65;37.46;100552.68;1717576;81;22271;-53
2022/08/30 10:27:31;;;;;;;5.92;3.15;;;;;;;26.73;36.84;100556.96;1687591;83;21122;-53
2022/08/30 10:30:12;;;;;;;7.20;2.70;;;;;;;26.81;36.36;100580.11;1687458;82;21101;-54
2022/08/30 10:33:01;;;;;;;6.90;2.70;;;;;;;26.79;36.48;100557.39;1678550;83;21109;-54
2022/08/30 10:35:35;;;;;;;4.42;2.35;;;;;;;26.82;35.76;100556.94;1671397;83;21162;-55
2022/08/30 10:38:23;;;;;;;6.85;2.90;;;;;;;26.91;35.82;100549.89;1690494;81;21193;-55
2022/08/30 10:41:13;;;;;;;5.20;2.87;;;;;;;26.98;36.49;100550.62;1678058;81;21077;-54
2022/08/30 10:44:24;;;;;;;5.50;2.92;;;;;;;27.02;36.29;100539.68;1712541;81;21398;-54
2022/08/30 10:47:25;;;;;;;7.80;3.17;;;;;;;27.03;35.93;100541.30;1712207;81;21159;-54
2022/08/30 10:50:00;;;;;;;4.87;2.40;;;;;;;27.06;35.44;100548.42;1700186;82;21572;-54
2022/08/30 10:52:55;;;;;;;6.25;3.00;;;;;;;27.11;35.62;100553.15;1695007;81;21162;-54
2022/08/30 10:55:28;;;;;;;7.05;3.10;;;;;;;27.11;35.93;100540.17;1711301;80;21070;-55
2022/08/30 10:58:03;;;;;;;7.90;2.87;;;;;;;27.15;36.14;100534.09;1723720;80;21439;-54
2022/08/30 11:00:48;;;;;;;5.87;2.25;;;;;;;27.21;36.36;100547.20;1719619;80;21676;-55
2022/08/30 11:03:29;;;;;;;6.08;2.52;;;;;;;27.27;36.10;100540.05;1670275;81;21188;-54
2022/08/30 11:06:13;;;;;;;4.92;2.58;;;;;;;27.32;36.46;100533.45;1699153;80;22265;-54
2022/08/30 11:09:14;;;;;;;8.20;2.98;;;;;;;27.37;36.49;100526.83;1666718;81;21193;-56
2022/08/30 11:12:07;;;;;;;6.22;2.75;;;;;;;27.43;36.85;100536.20;1718394;80;21074;-54
2022/08/30 11:14:34;;;;;;;7.72;2.87;;;;;;;27.48;36.36;100519.30;1717225;81;21195;-55
2022/08/30 11:17:01;;;;;;;5.37;2.55;;;;;;;27.49;35.86;100517.41;1656040;83;21689;-55
2022/08/30 11:19:37;;;;;;;5.08;2.47;;;;;;;27.53;36.40;100517.25;1659378;84;21571;-54
2022/08/30 11:22:27;;;;;;;6.72;2.75;;;;;;;27.61;35.90;100517.73;1666465;82;21058;-55
2022/08/30 11:25:12;;;;;;;4.58;2.27;;;;;;;27.68;35.99;100513.58;1674992;81;21023;-54
2022/08/30 11:27:55;;;;;;;5.45;2.60;;;;;;;27.74;35.90;100517.22;1701692;81;21046;-54
2022/08/30 11:30:31;;;;;;;5.50;2.70;;;;;;;27.76;35.91;100509.72;1714730;81;21106;-54
2022/08/30 11:33:18;;;;;;;8.85;2.62;;;;;;;27.82;36.50;100526.33;1716683;80;21149;-54
2022/08/30 11:35:48;;;;;;;5.53;2.70;;;;;;;27.85;35.00;100531.28;1708464;80;21898;-54
2022/08/30 11:38:29;;;;;;;6.12;2.62;;;;;;;27.85;35.17;100532.63;1706667;80;21805;-54
2022/08/30 11:41:10;;;;;;;5.75;2.60;;;;;;;27.78;35.39;100514.36;1724338;80;21033;-54
2022/08/30 11:43:45;;;;;;;4.42;2.05;;;;;;;27.81;35.50;100513.89;1719640;81;21097;-54
2022/08/30 11:46:19;;;;;;;4.15;2.17;;;;;;;27.87;35.09;100516.98;1715176;80;21117;-54
2022/08/30 11:48:55;;;;;;;4.65;2.10;;;;;;;27.97;35.12;100514.58;1703177;81;21075;-54
2022/08/30 11:52:05;;;;;;;5.53;2.70;;;;;;;28.07;35.34;100513.16;1706449;81;21520;-55
2022/08/30 11:55:12;;;;;;;4.35;2.30;;;;;;;28.15;35.06;100504.69;1646144;84;21501;-53
2022/08/30 11:58:04;;;;;;;5.75;2.80;;;;;;;28.21;34.75;100500.20;1713719;80;21042;-52
2022/08/30 12:00:44;;;;;;;7.53;3.17;;;;;;;28.26;35.20;100501.16;1719997;80;21169;-52
2022/08/30 12:03:22;;;;;;;4.92;2.30;;;;;;;28.34;35.43;100506.71;1727921;81;21148;-52
2022/08/30 12:05:58;;;;;;;6.15;2.83;;;;;;;28.45;35.18;100504.52;1732762;80;21083;-52
2022/08/30 12:08:39;;;;;;;4.60;2.22;;;;;;;28.53;34.02;100510.92;1725949;80;21717;-52
2022/08/30 12:11:13;;;;;;;5.00;2.45;;;;;;;28.52;33.76;100503.85;1743660;80;21200;-52
2022/08/30 12:13:49;;;;;;;5.22;2.55;;;;;;;28.51;33.33;100509.50;1743429;80;21786;-52
2022/08/30 12:16:20;;;;;;;;;;;;;;;28.52;33.34;100497.63;1740475;80;21042;-52
2022/08/30 12:19:00;;;;;;;6.25;2.42;;;;;;;28.64;33.48;100496.27;1723583;80;20252;-53
2022/08/30 12:21:31;;;;;;;6.80;2.90;;;;;;;28.78;33.34;100488.69;1729814;80;21078;-53
2022/08/30 12:24:26;;;;;;;5.08;2.42;;;;;;;28.89;32.95;100483.77;1724139;80;21160;-52
2022/08/30 12:26:53;;;;;;;13.83;3.00;;;;;;;28.98;32.94;100485.00;1748577;80;22110;-52
2022/08/30 12:29:27;;;;;;;4.72;2.65;;;;;;;29.04;33.17;100484.58;1714412;81;22222;-52
2022/08/30 12:31:58;;;;;;;4.75;2.50;;;;;;;29.09;33.22;100483.31;1701259;82;21026;-53
2022/08/30 12:34:32;;;;;;;5.42;3.00;;;;;;;29.09;33.17;100477.36;1703894;82;21073;-54
2022/08/30 12:37:10;;;;;;;5.08;2.85;;;;;;;29.11;33.62;100478.47;1703078;81;21041;-53
2022/08/30 12:39:41;;;;;;;4.67;2.55;;;;;;;29.16;33.37;100477.75;1702595;81;21285;-54
2022/08/30 12:42:25;;;;;;;4.00;2.10;;;;;;;29.23;33.28;100475.73;1675655;83;21162;-53
2022/08/30 12:44:56;;;;;;;4.45;2.10;;;;;;;29.34;32.96;100474.03;1672227;82;21067;-53
2022/08/30 12:47:32;;;;;;;6.62;2.27;;;;;;;29.40;31.23;100475.73;1672595;83;21089;-53
2022/08/30 12:49:58;;;;;;;;;;;;;;;29.38;31.40;100471.10;1730257;80;21140;-54
2022/08/30 12:52:30;;;;;;;7.08;2.55;;;;;;;29.35;31.47;100476.47;1724719;80;21144;-54
2022/08/30 12:55:17;;;;;;;5.03;2.40;;;;;;;29.33;31.48;100460.98;1695686;82;21614;-53
2022/08/30 12:58:00;;;;;;;5.85;2.62;;;;;;;29.34;31.28;100464.00;1690046;82;21109;-53
2022/08/30 13:00:37;;;;;;;6.80;2.80;;;;;;;29.26;31.85;100454.37;1660542;83;21103;-54
2022/08/30 13:03:26;;;;;;;5.00;2.70;;;;;;;29.34;31.52;100456.41;1667163;83;21066;-54
2022/08/30 13:05:54;;;;;;;5.55;2.70;;;;;;;29.45;31.40;100460.40;1659403;83;21227;-53
2022/08/30 13:08:43;;;;;;;4.80;2.12;;;;;;;29.52;31.16;100458.03;1717060;81;21122;-54
2022/08/30 13:11:26;;;;;;;4.78;2.40;;;;;;;29.55;31.40;100456.19;1694048;82;21125;-53
2022/08/30 13:13:59;;;;;;;4.75;2.67;;;;;;;29.61;31.66;100459.28;1656656;84;21039;-53
2022/08/30 13:16:35;;;;;;;4.00;2.27;;;;;;;29.59;31.62;100445.97;1661642;83;21096;-53
2022/08/30 13:19:41;;;;;;;7.72;2.65;;;;;;;29.58;31.42;100451.09;1671246;83;21127;-53
2022/08/30 13:22:39;;;;;;;4.60;2.42;;;;;;;29.59;31.66;100441.09;1703158;80;21121;-53
2022/08/30 13:25:07;;;;;;;4.85;2.25;;;;;;;29.71;31.59;100455.36;1680814;84;21455;-52
2022/08/30 13:27:36;;;;;;;6.40;2.70;;;;;;;29.80;30.34;100443.04;1673977;81;21179;-52
2022/08/30 13:30:12;;;;;;;4.50;2.10;;;;;;;29.82;30.39;100439.56;1694997;81;21059;-52
2022/08/30 13:32:38;;;;;;;7.15;2.75;;;;;;;30.25;29.49;100445.27;1723711;80;21166;-53
2022/08/30 13:35:07;;;;;;;4.92;2.40;;;;;;;31.36;28.92;100436.95;1714459;81;21574;-53
2022/08/30 13:37:34;;;;;;;4.67;2.25;;;;;;;32.74;27.03;100440.41;1707994;80;21105;-52
2022/08/30 13:40:02;;;;;;;3.92;2.10;;;;;;;34.13;25.34;100425.84;1714870;81;21003;-52
2022/08/30 13:42:29;;;;;;;4.25;2.08;;;;;;;35.39;23.80;100421.81;1743078;80;21495;-53
2022/08/30 13:44:56;;;;;;;4.87;2.40;;;;;;;36.32;22.91;100416.70;1736934;80;21571;-54
2022/08/30 13:47:22;;;;;;;4.90;2.12;;;;;;;37.26;22.06;100408.16;1704108;80;21034;-53
2022/08/30 13:49:50;;;;;;;4.97;2.30;;;;;;;38.15;21.26;100412.50;1707440;81;21110;-54
2022/08/30 13:52:21;;;;;;;5.45;2.20;;;;;;;38.87;20.54;100410.88;1701365;81;21559;-54
2022/08/30 13:54:51;;;;;;;4.55;2.45;;;;;;;39.45;19.83;100422.08;1720211;81;21049;-53
2022/08/30 13:57:20;;;;;;;4.80;2.42;;;;;;;39.79;19.45;100420.62;1722062;81;21244;-53
2022/08/30 13:59:47;;;;;;;4.20;2.10;;;;;;;40.07;18.94;100413.75;1719954;81;21093;-53
2022/08/30 14:02:13;;;;;;;5.15;2.12;;;;;;;40.63;17.96;100418.11;1701969;80;21562;-53
2022/08/30 14:04:40;;;;;;;4.35;2.30;;;;;;;40.58;17.54;100416.09;1724547;81;21045;-53
2022/08/30 14:07:08;;;;;;;4.92;2.22;;;;;;;40.54;17.97;100404.91;1713124;80;21656;-53
2022/08/30 14:09:34;;;;;;;4.87;2.12;;;;;;;41.01;17.38;100404.23;1716224;81;21148;-52
2022/08/30 14:12:02;;;;;;;4.72;2.17;;;;;;;41.26;17.32;100397.59;1696593;82;21077;-53
2022/08/30 14:14:29;;;;;;;3.80;1.90;;;;;;;41.49;17.02;100401.72;1721024;81;21578;-53
2022/08/30 14:16:55;;;;;;;3.83;2.00;;;;;;;41.58;16.97;100395.60;1719869;81;21686;-52
2022/08/30 14:19:22;;;;;;;4.83;2.27;;;;;;;41.69;16.42;100396.64;1738262;80;21034;-53
2022/08/30 14:21:48;;;;;;;4.35;1.98;;;;;;;41.70;16.74;100389.40;1721481;81;21146;-53
2022/08/30 14:24:15;;;;;;;4.78;2.35;;;;;;;42.77;15.69;100391.89;1725789;80;21050;-53
2022/08/30 14:26:46;;;;;;;7.17;2.33;;;;;;;42.77;15.69;100391.89;1713443;80;21070;-53
2022/08/30 14:29:20;;;;;;;3.70;1.80;;;;;;;42.80;15.91;100384.86;1696689;82;21051;-53
2022/08/30 14:31:47;;;;;;;3.72;2.08;;;;;;;42.68;15.98;100378.12;1697360;81;21077;-53
2022/08/30 14:34:14;;;;;;;4.15;2.20;;;;;;;42.68;16.01;100382.86;1711170;80;21152;-53
2022/08/30 14:36:42;;;;;;;5.62;2.17;;;;;;;42.80;15.95;100382.89;1733068;80;21435;-53
2022/08/30 14:39:13;;;;;;;5.28;2.17;;;;;;;43.09;15.44;100381.13;1709200;80;21063;-52
2022/08/30 14:41:46;;;;;;;5.45;2.35;;;;;;;43.03;15.20;100370.88;1724299;80;21508;-55
2022/08/30 14:44:14;;;;;;;4.05;2.30;;;;;;;42.83;15.27;100381.41;1722899;81;21105;-55
2022/08/30 14:46:41;;;;;;;4.60;1.90;;;;;;;42.49;15.48;100366.75;1730790;80;21101;-53
2022/08/30 14:49:08;;;;;;;4.75;2.05;;;;;;;42.22;15.71;100364.78;1747895;80;21095;-54
2022/08/30 14:51:34;;;;;;;5.22;2.30;;;;;;;42.04;15.41;100364.06;1735442;80;21235;-54
2022/08/30 14:54:01;;;;;;;4.80;1.87;;;;;;;41.90;15.99;100350.52;1728128;80;21066;-54
2022/08/30 14:56:28;;;;;;;4.85;2.05;;;;;;;41.87;16.18;100351.77;1701654;80;21164;-57
2022/08/30 14:58:59;;;;;;;4.60;2.45;;;;;;;41.79;16.09;100354.81;1689791;82;21133;-57
2022/08/30 15:01:24;;;;;;;4.47;2.55;;;;;;;41.51;16.36;100347.55;1714794;80;21041;-57
2022/08/30 15:03:50;;;;;;;6.72;2.47;;;;;;;41.26;16.79;100357.02;1655910;84;21072;-56
2022/08/30 15:06:17;;;;;;;4.70;2.05;;;;;;;41.08;16.95;100351.30;1698510;82;21662;-56
2022/08/30 15:08:43;;;;;;;4.95;2.47;;;;;;;41.01;16.78;100347.67;1644642;84;21084;-56
2022/08/30 15:11:11;;;;;;;5.47;2.45;;;;;;;40.80;17.04;100345.56;1721614;81;21154;-57
2022/08/30 15:13:38;;;;;;;5.60;2.27;;;;;;;41.08;17.22;100347.16;1663124;84;21043;-57
2022/08/30 15:16:25;;;;;;;4.90;2.08;;;;;;;41.42;16.83;100350.94;1691741;82;21022;-57
2022/08/30 15:18:51;;;;;;;5.05;2.40;;;;;;;41.46;16.47;100343.05;1663596;83;21012;-55
2022/08/30 15:21:26;;;;;;;4.33;2.47;;;;;;;41.34;16.57;100345.69;1670699;83;21047;-56
2022/08/30 15:23:53;;;;;;;4.05;1.82;;;;;;;41.01;16.78;100341.56;1735283;80;21531;-56
2022/08/30 15:26:20;;;;;;;5.55;2.33;;;;;;;40.95;16.96;100342.08;1728652;80;21373;-56
2022/08/30 15:28:47;;;;;;;5.12;2.47;;;;;;;41.15;16.83;100334.45;1698646;82;21128;-56
2022/08/30 15:31:13;;;;;;;4.10;2.33;;;;;;;41.30;16.57;100337.27;1723467;81;21098;-55
2022/08/30 15:33:40;;;;;;;5.05;2.77;;;;;;;41.33;16.42;100333.84;1732854;80;21062;-55
2022/08/30 15:36:07;;;;;;;4.28;2.30;;;;;;;41.48;16.56;100335.23;1690268;82;21833;-55
2022/08/30 15:38:34;;;;;;;7.17;2.47;;;;;;;41.48;16.34;100337.20;1668907;83;21080;-55
2022/08/30 15:41:04;;;;;;;3.98;2.27;;;;;;;41.28;16.61;100333.23;1695496;81;21125;-54
2022/08/30 15:43:31;;;;;;;5.97;2.15;;;;;;;41.23;16.72;100321.77;1663837;84;21085;-54
2022/08/30 15:46:15;;;;;;;6.05;2.37;;;;;;;41.14;16.20;100328.71;1652848;82;21073;-54
2022/08/30 15:48:44;;;;;;;4.53;2.05;;;;;;;40.84;16.31;100324.50;1712789;80;21339;-54
2022/08/30 15:51:10;;;;;;;4.37;2.12;;;;;;;40.58;16.64;100321.77;1721735;81;21105;-52
2022/08/30 15:53:37;;;;;;;6.85;2.17;;;;;;;40.33;16.71;100328.89;1710848;80;21110;-53
2022/08/30 15:56:05;;;;;;;4.70;2.22;;;;;;;39.82;17.07;100320.83;1701855;80;21117;-55
2022/08/30 15:58:32;;;;;;;4.62;2.22;;;;;;;39.15;17.80;100322.13;1717465;80;21058;-54
2022/08/30 16:00:58;;;;;;;5.53;2.00;;;;;;;38.68;18.35;100327.19;1698203;82;21164;-55
2022/08/30 16:03:25;;;;;;;4.40;2.27;;;;;;;38.46;18.60;100332.11;1714891;81;21577;-55
2022/08/30 16:05:52;;;;;;;5.78;3.15;;;;;;;38.15;18.55;100330.62;1711328;80;21157;-53
2022/08/30 16:08:18;;;;;;;5.47;2.45;;;;;;;37.66;19.29;100329.75;1699225;80;21090;-54
2022/08/30 16:10:46;;;;;;;4.53;2.50;;;;;;;37.44;19.33;100329.07;1724408;80;21109;-54
2022/08/30 16:13:12;;;;;;;5.05;2.80;;;;;;;37.06;19.75;100331.94;1719671;80;21270;-55
2022/08/30 16:15:39;;;;;;;4.45;2.47;;;;;;;36.63;20.25;100326.61;1708372;80;21149;-55
2022/08/30 16:18:06;;;;;;;4.45;2.00;;;;;;;36.13;20.66;100331.73;1712089;80;21196;-55
2022/08/30 16:20:32;;;;;;;5.40;2.45;;;;;;;35.80;21.04;100335.74;1699871;83;21415;-53
2022/08/30 16:23:01;;;;;;;4.70;2.10;;;;;;;35.50;21.26;100346.72;1669145;83;21138;-53
2022/08/30 16:25:27;;;;;;;5.17;2.52;;;;;;;34.96;21.84;100345.06;1661070;83;22291;-53
2022/08/30 16:27:54;;;;;;;5.30;2.22;;;;;;;34.34;22.41;100350.95;1663382;83;21047;-52
2022/08/30 16:30:20;;;;;;;5.50;2.42;;;;;;;33.75;23.12;100348.48;1663016;84;21053;-53
2022/08/30 16:32:48;;;;;;;3.95;2.05;;;;;;;33.13;23.67;100359.48;1674494;83;21015;-53
2022/08/30 16:35:14;;;;;;;4.33;2.30;;;;;;;32.54;24.46;100362.72;1687319;82;21067;-53
2022/08/30 16:37:41;;;;;;;4.42;2.25;;;;;;;32.01;25.19;100370.96;1664326;83;21432;-52
2022/08/30 16:40:09;;;;;;;4.47;2.27;;;;;;;31.54;25.68;100372.66;1701358;82;21034;-52
2022/08/30 16:42:36;;;;;;;3.87;2.20;;;;;;;31.06;26.21;100376.63;1686420;83;21372;-53
2022/08/30 16:45:04;;;;;;;5.08;2.80;;;;;;;30.69;26.97;100377.37;1677090;83;20979;-53
2022/08/30 16:47:32;;;;;;;6.33;2.70;;;;;;;30.37;27.37;100378.67;1685007;82;21121;-52
2022/08/30 16:49:59;;;;;;;4.70;2.27;;;;;;;30.14;27.85;100377.86;1701065;81;21749;-53
2022/08/30 16:52:25;;;;;;;5.78;2.65;;;;;;;29.95;28.15;100378.69;1706960;80;21092;-52
2022/08/30 16:54:53;;;;;;;6.42;2.95;;;;;;;29.72;28.54;100387.84;1717963;81;21084;-52
2022/08/30 16:57:22;;;;;;;5.62;2.65;;;;;;;29.41;29.05;100392.83;1714229;80;21062;-52
2022/08/30 16:59:48;;;;;;;5.28;3.10;;;;;;;29.14;29.41;100395.90;1728264;80;21083;-52
2022/08/30 17:02:15;;;;;;;9.10;3.02;;;;;;;28.95;29.84;100406.97;1745683;80;21284;-52
2022/08/30 17:04:41;;;;;;;5.53;2.85;;;;;;;28.78;30.24;100408.30;1713289;80;22502;-52
2022/08/30 17:07:10;;;;;;;5.30;2.62;;;;;;;28.66;30.61;100407.51;1733935;79;21130;-52
2022/08/30 17:09:36;;;;;;;6.15;2.95;;;;;;;28.56;31.07;100412.73;1734457;80;21094;-52
2022/08/30 17:12:03;;;;;;;5.35;2.65;;;;;;;28.50;31.53;100414.50;1704858;82;21592;-52
2022/08/30 17:15:58;;;;;;;5.30;2.95;;;;;;;28.45;32.47;100423.87;1774878;79;21924;-51
2022/08/30 17:18:25;;;;;;;6.35;2.60;;;;;;;28.40;32.65;100427.84;1739663;81;21108;-51
2022/08/30 17:20:52;;;;;;;4.87;2.67;;;;;;;28.31;32.95;100436.33;1748443;81;21156;-51
2022/08/30 17:23:18;;;;;;;4.85;3.27;;;;;;;28.22;33.35;100439.64;1746271;81;21515;-51
2022/08/30 17:25:45;;;;;;;6.78;2.98;;;;;;;28.10;33.84;100444.53;1745159;81;22225;-51
2022/08/30 17:28:12;;;;;;;4.65;2.47;;;;;;;28.00;34.11;100442.15;1747867;81;21035;-52
2022/08/30 17:30:38;;;;;;;5.20;3.00;;;;;;;27.88;34.22;100447.53;1746054;80;20919;-53
2022/08/30 17:33:05;;;;;;;4.60;2.42;;;;;;;27.77;34.54;100450.52;1751668;81;21106;-52
2022/08/30 17:35:31;;;;;;;4.62;2.70;;;;;;;27.68;34.99;100454.64;1745599;81;20892;-52
2022/08/30 17:37:58;;;;;;;7.00;3.50;;;;;;;27.59;35.39;100449.58;1745225;81;21741;-52
2022/08/30 17:40:24;;;;;;;7.65;3.30;;;;;;;27.53;35.55;100453.75;1746600;80;21054;-53
2022/08/30 17:42:51;;;;;;;6.12;3.37;;;;;;;27.49;35.68;100460.66;1739688;80;21070;-53
2022/08/30 17:45:17;;;;;;;5.85;3.25;;;;;;;27.40;35.85;100462.89;1743560;81;21264;-53
2022/08/30 17:47:44;;;;;;;7.80;3.12;;;;;;;27.29;36.13;100463.17;1741193;80;21101;-53
2022/08/30 17:50:12;;;;;;;7.97;3.55;;;;;;;27.15;36.77;100461.17;1750901;81;21089;-53
2022/08/30 17:52:38;;;;;;;6.67;3.35;;;;;;;27.00;37.42;100470.20;1744592;80;21055;-53
2022/08/30 17:55:07;;;;;;;6.05;3.15;;;;;;;26.87;37.98;100473.39;1743827;80;21102;-53
2022/08/30 17:57:35;;;;;;;7.25;3.75;;;;;;;26.74;38.27;100475.45;1743865;81;21129;-53
2022/08/30 18:00:06;;;;;;;8.98;4.00;;;;;;;26.56;38.07;100474.91;1746434;80;21181;-53
2022/08/30 18:02:33;;;;;;;6.67;3.70;;;;;;;26.40;38.38;100477.17;1742114;80;21106;-53
2022/08/30 18:05:00;;;;;;;5.85;3.60;;;;;;;26.25;38.64;100474.85;1750284;81;21042;-53
2022/08/30 18:07:26;;;;;;;6.35;4.00;;;;;;;26.16;38.85;100476.21;1746436;81;21003;-53
2022/08/30 18:09:53;;;;;;;11.18;4.55;;;;;;;26.09;38.73;100478.98;1748045;81;21251;-53
2022/08/30 18:12:19;;;;;;;8.75;4.62;;;;;;;26.01;38.55;100475.22;1749027;80;21011;-53
2022/08/30 18:14:46;;;;;;;7.40;4.45;;;;;;;25.92;38.52;100479.20;1735027;80;21651;-53
2022/08/30 18:17:12;;;;;;;8.40;4.42;;;;;;;25.81;38.91;100485.34;1716031;82;21066;-53
2022/08/30 18:19:39;;;;;;;7.35;4.40;;;;;;;25.70;39.28;100486.86;1723647;82;21074;-53
2022/08/30 18:22:06;;;;;;;8.53;4.10;;;;;;;25.63;39.31;100492.31;1721959;82;21189;-53
2022/08/30 18:24:34;;;;;;;10.03;4.30;;;;;;;25.56;39.15;100490.20;1725741;82;21133;-53
2022/08/30 18:27:02;;;;;;;6.28;4.17;;;;;;;25.46;38.94;100495.25;1722968;82;21027;-53
2022/08/30 18:29:30;;;;;;;9.70;4.58;;;;;;;25.34;38.93;100491.09;1726065;82;21074;-53
2022/08/30 18:31:59;;;;;;;7.75;4.65;;;;;;;25.24;38.99;100490.72;1725738;82;21097;-53
2022/08/30 18:34:25;;;;;;;7.42;4.35;;;;;;;25.15;39.13;100495.01;1726333;82;21193;-53
2022/08/30 18:36:52;;;;;;;6.50;3.95;;;;;;;25.01;39.23;100496.92;1724854;82;21053;-53
2022/08/30 18:39:20;;;;;;;9.43;4.22;;;;;;;24.88;39.49;100497.52;1720654;82;21041;-53
2022/08/30 18:41:48;;;;;;;9.23;4.78;;;;;;;24.73;39.62;100487.03;1719594;82;21229;-53
2022/08/30 18:44:14;;;;;;;9.43;4.87;;;;;;;24.60;39.74;100494.66;1723525;82;21087;-54
2022/08/30 18:46:41;;;;;;;14.95;4.97;;;;;;;24.48;39.88;100491.77;1719576;82;21201;-54
2022/08/30 18:49:08;;;;;;;8.48;4.45;;;;;;;24.36;39.93;100497.48;1712469;82;21042;-53
2022/08/30 18:51:35;;;;;;;7.65;4.53;;;;;;;24.22;40.15;100490.78;1719132;82;21054;-54
2022/08/30 18:54:03;;;;;;;7.20;4.40;;;;;;;24.16;40.28;100494.83;1695804;82;21102;-54
2022/08/30 18:56:30;;;;;;;8.58;4.50;;;;;;;24.08;40.34;100495.37;1719659;82;21539;-54
2022/08/30 18:58:57;;;;;;;6.67;4.53;;;;;;;24.02;40.42;100493.50;1700628;82;21249;-54
2022/08/30 19:01:23;;;;;;;6.20;4.15;;;;;;;23.98;40.44;100490.94;1705925;82;21101;-53
2022/08/30 19:03:50;;;;;;;5.80;3.83;;;;;;;23.91;40.40;100491.47;1705667;82;21101;-54
2022/08/30 19:06:17;;;;;;;7.15;4.55;;;;;;;23.84;40.49;100496.85;1714487;82;21129;-53
2022/08/30 19:08:44;;;;;;;10.82;4.85;;;;;;;23.79;40.70;100499.30;1710177;82;21533;-54
2022/08/30 19:11:10;;;;;;;6.60;4.22;;;;;;;23.73;40.86;100494.22;1697592;82;22168;-53
2022/08/30 19:13:37;;;;;;;7.47;4.95;;;;;;;23.69;41.01;100496.21;1698399;82;21031;-53
2022/08/30 19:16:05;;;;;;;9.23;4.40;;;;;;;23.60;41.21;100497.43;1716512;81;21027;-54
2022/08/30 19:18:31;;;;;;;8.80;4.40;;;;;;;23.54;41.39;100501.25;1723516;81;21142;-54
2022/08/30 19:20:58;;;;;;;10.58;4.95;;;;;;;23.47;41.46;100503.11;1724000;82;21122;-54
2022/08/30 19:23:26;;;;;;;10.10;4.85;;;;;;;23.43;41.71;100507.74;1721782;81;21220;-54
2022/08/30 19:25:53;;;;;;;7.03;4.67;;;;;;;23.37;41.98;100504.03;1721977;81;21023;-54
2022/08/30 19:28:20;;;;;;;8.03;4.85;;;;;;;23.28;42.10;100499.87;1716681;81;21087;-54
2022/08/30 19:30:47;;;;;;;6.33;4.28;;;;;;;23.19;42.26;100500.58;1725094;82;21060;-54
2022/08/30 19:33:13;;;;;;;8.15;5.20;;;;;;;23.13;42.35;100504.06;1721721;81;21059;-53
2022/08/30 19:35:40;;;;;;;9.35;4.35;;;;;;;23.05;42.42;100502.38;1719484;81;21298;-54
2022/08/30 19:38:08;;;;;;;8.93;5.37;;;;;;;22.96;42.58;100505.77;1727005;81;20983;-54
2022/08/30 19:40:34;;;;;;;8.38;4.95;;;;;;;22.87;42.81;100506.14;1729790;82;21422;-54
2022/08/30 19:43:01;;;;;;;7.22;4.83;;;;;;;22.82;42.97;100508.07;1722243;81;21059;-54
2022/08/30 19:45:29;;;;;;;11.73;4.10;;;;;;;22.80;43.11;100505.59;1718030;81;21012;-53
2022/08/30 19:47:56;;;;;;;11.33;5.40;;;;;;;22.77;43.21;100505.16;1724009;81;21131;-53
2022/08/30 19:50:24;;;;;;;9.10;4.75;;;;;;;22.72;43.29;100499.58;1719247;82;21126;-53
2022/08/30 19:52:51;;;;;;;11.08;5.08;;;;;;;22.66;43.28;100499.84;1717750;81;21034;-53
2022/08/30 19:55:18;;;;;;;8.88;5.37;;;;;;;22.58;43.35;100501.37;1723002;81;21035;-53